createdAt,value
2019-01-05T00:02:20.929Z,15.50
2019-01-05T00:05:10.760Z,17.17
2019-01-05T00:08:09.910Z,16.87
2019-01-05T00:10:59.322Z,17.13
2019-01-05T00:13:51.937Z,18.50
2019-01-05T00:16:41.118Z,16.63
2019-01-05T00:19:34.231Z,17.30
2019-01-05T00:22:23.110Z,15.03
2019-01-05T00:25:19.754Z,18.33
2019-01-05T00:28:08.861Z,16.13
2019-01-05T00:30:59.778Z,17.77
2019-01-05T00:33:49.108Z,17.07
2019-01-05T00:37:06.373Z,18.70
2019-01-05T00:39:56.003Z,17.83
2019-01-05T00:42:38.761Z,16.17
2019-01-05T00:45:32.061Z,19.10
2019-01-05T00:48:32.198Z,17.20
2019-01-05T00:51:22.702Z,17.83
2019-01-05T00:54:28.201Z,18.10
2019-01-05T00:57:24.838Z,15.27
2019-01-05T01:00:15.261Z,16.40
2019-01-05T01:03:07.869Z,16.60
2019-01-05T01:05:56.365Z,15.80
2019-01-05T01:08:44.937Z,15.90
2019-01-05T01:11:38.497Z,15.67
2019-01-05T01:14:27.210Z,15.13
2019-01-05T01:17:15.809Z,15.10
2019-01-05T01:20:14.601Z,15.60
2019-01-05T01:23:16.878Z,15.30
2019-01-05T01:26:09.465Z,16.40
2019-01-05T01:28:58.778Z,14.57
2019-01-05T01:31:55.237Z,16.20
2019-01-05T01:34:45.314Z,13.77
2019-01-05T01:37:35.605Z,16.33
2019-01-05T01:40:45.646Z,15.40
2019-01-05T01:43:44.567Z,16.43
2019-01-05T01:46:48.879Z,15.00
2019-01-05T01:49:38.770Z,15.10
2019-01-05T01:52:41.447Z,13.70
2019-01-05T01:55:42.974Z,14.50
2019-01-05T01:58:41.229Z,14.43
2019-01-05T02:01:37.897Z,15.73
2019-01-05T02:04:34.634Z,14.30
2019-01-05T02:07:23.630Z,12.43
2019-01-05T02:10:27.130Z,13.53
2019-01-05T02:13:30.381Z,13.40
2019-01-05T02:16:43.141Z,13.90
2019-01-05T02:20:18.122Z,13.83
2019-01-05T02:24:12.158Z,15.60
2019-01-05T02:27:46.842Z,13.20
2019-01-05T02:31:05.259Z,13.80
2019-01-05T02:34:43.422Z,13.93
2019-01-05T02:38:19.538Z,12.40
2019-01-05T02:41:55.449Z,12.80
2019-01-05T02:45:36.890Z,10.77
2019-01-05T02:49:05.386Z,12.60
2019-01-05T02:52:46.875Z,12.20
2019-01-05T02:56:27.186Z,13.27
2019-01-05T03:00:00.523Z,12.27
2019-01-05T03:03:49.342Z,11.13
2019-01-05T03:07:32.744Z,11.03
2019-01-05T03:11:07.883Z,11.50
2019-01-05T03:14:34.117Z,10.63
2019-01-05T03:18:12.206Z,13.13
2019-01-05T03:22:01.870Z,11.63
2019-01-05T03:25:23.959Z,10.63
2019-01-05T03:29:25.094Z,11.63
2019-01-05T03:33:09.158Z,12.30
2019-01-05T03:36:41.350Z,11.73
2019-01-05T03:40:29.771Z,13.10
2019-01-05T03:44:01.011Z,11.23
2019-01-05T03:47:48.216Z,10.93
2019-01-05T03:51:01.842Z,11.87
2019-01-05T03:54:35.425Z,11.67
2019-01-05T03:58:20.201Z,10.70
2019-01-05T04:02:10.173Z,11.63
2019-01-05T04:05:51.974Z,11.90
2019-01-05T04:09:27.376Z,11.40
2019-01-05T04:13:04.507Z,12.00
2019-01-05T04:16:17.729Z,11.57
2019-01-05T04:19:49.858Z,11.00
2019-01-05T04:23:50.275Z,11.13
2019-01-05T04:27:28.463Z,13.07
2019-01-05T04:31:04.564Z,12.63
2019-01-05T04:34:25.757Z,10.30
2019-01-05T04:37:57.165Z,13.03
2019-01-05T04:42:04.510Z,11.17
2019-01-05T04:45:19.942Z,10.43
2019-01-05T04:49:08.810Z,10.30
2019-01-05T04:52:32.002Z,11.47
2019-01-05T04:55:54.262Z,10.60
2019-01-05T04:59:31.872Z,10.50
2019-01-05T05:03:03.705Z,9.70
2019-01-05T05:06:40.457Z,11.47
2019-01-05T05:10:26.617Z,11.30
2019-01-05T05:13:47.562Z,10.57
2019-01-05T05:17:16.911Z,12.50
2019-01-05T05:20:47.708Z,10.93
2019-01-05T05:24:12.063Z,9.83
2019-01-05T05:27:32.534Z,11.27
2019-01-05T05:30:32.079Z,12.40
2019-01-05T05:34:00.431Z,11.60
2019-01-05T05:37:14.873Z,9.80
2019-01-05T05:41:14.461Z,12.00
2019-01-05T05:44:46.882Z,11.23
2019-01-05T05:48:16.842Z,12.17
2019-01-05T05:51:45.429Z,12.60
2019-01-05T05:55:16.184Z,12.20
2019-01-05T05:58:55.570Z,12.63
2019-01-05T06:02:38.750Z,10.07
2019-01-05T06:06:19.012Z,12.40
2019-01-05T06:09:54.891Z,10.90
2019-01-05T06:13:46.531Z,11.60
2019-01-05T06:16:55.742Z,11.43
2019-01-05T06:20:40.369Z,11.90
2019-01-05T06:24:17.775Z,10.93
2019-01-05T06:27:42.694Z,10.90
2019-01-05T06:31:04.706Z,12.13
2019-01-05T06:34:21.505Z,13.20
2019-01-05T06:38:11.033Z,11.97
2019-01-05T06:41:40.958Z,12.87
2019-01-05T06:45:23.137Z,11.90
2019-01-05T06:48:58.118Z,10.70
2019-01-05T06:52:18.621Z,11.33
2019-01-05T06:55:39.133Z,12.53
2019-01-05T06:59:06.173Z,12.40
2019-01-05T07:02:49.393Z,12.77
2019-01-05T07:06:19.118Z,12.60
2019-01-05T07:10:00.122Z,12.07
2019-01-05T07:13:59.014Z,11.30
2019-01-05T07:17:42.023Z,11.90
2019-01-05T07:21:08.613Z,11.20
2019-01-05T07:24:49.957Z,12.43
2019-01-05T07:28:31.222Z,12.20
2019-01-05T07:31:50.827Z,12.13
2019-01-05T07:35:36.778Z,12.70
2019-01-05T07:39:20.848Z,10.60
2019-01-05T07:43:05.134Z,9.10
2019-01-05T07:46:46.753Z,11.80
2019-01-05T07:50:27.609Z,11.50
2019-01-05T07:54:18.301Z,11.57
2019-01-05T07:57:51.665Z,11.10
2019-01-05T08:02:04.685Z,12.17
2019-01-05T08:05:34.058Z,11.30
2019-01-05T08:08:58.137Z,12.10
2019-01-05T08:12:39.535Z,15.23
2019-01-05T08:16:01.799Z,12.63
2019-01-05T08:19:29.282Z,11.97
2019-01-05T08:23:20.094Z,12.07
2019-01-05T08:26:36.962Z,12.57
2019-01-05T08:30:01.306Z,12.53
2019-01-05T08:33:45.522Z,12.83
2019-01-05T08:37:34.071Z,13.73
2019-01-05T08:41:00.497Z,11.13
2019-01-05T08:44:41.822Z,13.83
2019-01-05T08:48:00.145Z,13.70
2019-01-05T08:51:56.450Z,13.00
2019-01-05T08:55:43.205Z,12.63
2019-01-05T08:59:17.937Z,11.33
2019-01-05T09:02:44.134Z,12.40
2019-01-05T09:06:09.037Z,13.63
2019-01-05T09:09:32.953Z,14.50
2019-01-05T09:13:15.680Z,13.30
2019-01-05T09:16:56.807Z,12.70
2019-01-05T09:20:36.026Z,14.20
2019-01-05T09:24:26.635Z,13.37
2019-01-05T09:27:54.647Z,13.27
2019-01-05T09:31:20.662Z,14.33
2019-01-05T09:34:59.665Z,15.50
2019-01-05T09:38:32.044Z,15.97
2019-01-05T09:42:15.110Z,13.47
2019-01-05T09:45:49.953Z,15.13
2019-01-05T09:49:34.421Z,16.27
2019-01-05T09:53:16.081Z,18.00
2019-01-05T09:56:51.146Z,18.30
2019-01-05T10:00:14.266Z,15.67
2019-01-05T10:03:38.314Z,15.73
2019-01-05T10:07:11.626Z,18.90
2019-01-05T10:10:37.162Z,17.33
2019-01-05T10:14:14.217Z,17.97
2019-01-05T10:17:52.614Z,19.23
2019-01-05T10:21:52.302Z,17.87
2019-01-05T10:25:24.466Z,15.10
2019-01-05T10:29:12.677Z,17.77
2019-01-05T10:32:32.398Z,17.93
2019-01-05T10:36:31.290Z,16.33
2019-01-05T10:39:52.314Z,17.80
2019-01-05T10:43:29.514Z,18.53
2019-01-05T10:46:57.886Z,15.47
2019-01-05T10:50:27.503Z,19.63
2019-01-05T10:53:56.090Z,18.03
2019-01-05T10:57:16.322Z,16.00
2019-01-05T11:01:20.243Z,18.50
2019-01-05T11:04:43.601Z,17.90
2019-01-05T11:08:18.113Z,16.70
2019-01-05T11:11:56.409Z,17.40
2019-01-05T11:15:37.605Z,17.90
2019-01-05T11:19:15.625Z,16.67
2019-01-05T11:22:46.553Z,17.20
2019-01-05T11:26:31.874Z,16.23
2019-01-05T11:30:40.992Z,17.97
2019-01-05T11:34:13.147Z,18.17
2019-01-05T11:37:57.308Z,17.60
2019-01-05T11:41:20.898Z,18.00
2019-01-05T11:44:43.805Z,17.80
2019-01-05T11:48:32.597Z,17.97
2019-01-05T11:51:51.174Z,17.53
2019-01-05T11:55:44.807Z,18.67
2019-01-05T11:59:18.757Z,19.27
2019-01-05T12:03:08.455Z,16.63
2019-01-05T12:06:49.429Z,18.00
2019-01-05T12:10:30.458Z,19.10
2019-01-05T12:14:15.605Z,18.33
2019-01-05T12:18:09.610Z,17.77
2019-01-05T12:21:29.014Z,18.97
2019-01-05T12:25:16.441Z,16.63
2019-01-05T12:28:57.049Z,17.67
2019-01-05T12:32:38.070Z,17.77
2019-01-05T12:36:09.899Z,16.13
2019-01-05T12:39:58.631Z,18.43
2019-01-05T12:43:47.049Z,18.47
2019-01-05T12:47:30.113Z,17.10
2019-01-05T12:51:01.568Z,16.30
2019-01-05T12:54:52.014Z,17.50
2019-01-05T12:58:21.724Z,19.77
2019-01-05T13:02:15.568Z,19.80
2019-01-05T13:05:46.137Z,17.50
2019-01-05T13:09:09.471Z,19.27
2019-01-05T13:12:37.458Z,21.73
2019-01-05T13:16:08.370Z,18.67
2019-01-05T13:19:39.170Z,17.83
2019-01-05T13:23:30.803Z,19.30
2019-01-05T13:27:07.893Z,17.33
2019-01-05T13:30:58.802Z,16.57
2019-01-05T13:34:23.463Z,17.63
2019-01-05T13:38:12.698Z,17.23
2019-01-05T13:42:00.111Z,19.00
2019-01-05T13:45:32.198Z,16.80
2019-01-05T13:49:12.751Z,15.90
2019-01-05T13:52:46.199Z,14.33
2019-01-05T13:55:49.669Z,15.10
2019-01-05T13:58:38.011Z,16.83
2019-01-05T14:01:26.616Z,16.23
2019-01-05T14:04:28.695Z,16.17
2019-01-05T14:07:35.397Z,17.10
2019-01-05T14:10:24.181Z,16.73
2019-01-05T14:13:14.146Z,14.50
2019-01-05T14:16:16.040Z,15.47
2019-01-05T14:19:04.737Z,15.40
2019-01-05T14:22:49.877Z,14.87
2019-01-05T14:26:07.634Z,17.07
2019-01-05T14:29:12.883Z,15.60
2019-01-05T14:32:25.154Z,16.37
2019-01-05T14:35:15.053Z,18.17
2019-01-05T14:38:00.146Z,17.77
2019-01-05T14:41:08.166Z,15.20
2019-01-05T14:43:58.318Z,17.23
2019-01-05T14:46:50.826Z,14.00
2019-01-05T14:49:41.933Z,17.00
2019-01-05T14:52:47.282Z,16.77
2019-01-05T14:55:36.039Z,16.73
2019-01-05T14:58:24.321Z,13.50
2019-01-05T15:01:16.785Z,17.00
2019-01-05T15:04:32.781Z,14.20
2019-01-05T15:08:23.198Z,15.10
2019-01-05T15:11:20.634Z,14.50
2019-01-05T15:14:09.326Z,12.90
2019-01-05T15:17:08.398Z,11.90
2019-01-05T15:20:16.537Z,12.73
2019-01-05T15:23:05.154Z,14.00
2019-01-05T15:25:53.814Z,13.03
2019-01-05T15:28:55.742Z,12.50
2019-01-05T15:31:44.593Z,12.30
2019-01-05T15:34:36.814Z,12.20
2019-01-05T15:37:25.589Z,13.50
2019-01-05T15:40:21.534Z,13.27
2019-01-05T15:43:10.046Z,14.10
2019-01-05T15:46:07.314Z,13.23
2019-01-05T15:49:12.582Z,13.10
2019-01-05T15:52:02.055Z,13.63
2019-01-05T15:54:56.303Z,18.03
2019-01-05T15:57:45.238Z,17.40
2019-01-05T16:00:38.566Z,14.20
2019-01-05T16:03:46.805Z,14.47
2019-01-05T16:06:36.839Z,15.20
2019-01-05T16:09:30.538Z,12.23
2019-01-05T16:12:35.290Z,13.13
2019-01-05T16:15:43.478Z,13.97
2019-01-05T16:18:41.192Z,12.13
2019-01-05T16:21:54.549Z,13.03
2019-01-05T16:24:49.637Z,13.00
2019-01-05T16:27:53.480Z,14.10
2019-01-05T16:30:49.850Z,14.20
2019-01-05T16:33:56.616Z,12.80
2019-01-05T16:36:52.349Z,11.77
2019-01-05T16:39:59.105Z,12.50
2019-01-05T16:42:58.180Z,12.80
2019-01-05T16:45:53.450Z,13.37
2019-01-05T16:48:48.415Z,13.67
2019-01-05T16:51:42.599Z,26.10
2019-01-05T16:54:47.815Z,14.87
2019-01-05T16:57:50.771Z,14.73
2019-01-05T17:00:45.921Z,13.43
2019-01-05T17:03:50.360Z,15.70
2019-01-05T17:06:58.779Z,15.57
2019-01-05T17:09:51.729Z,13.10
2019-01-05T17:13:03.889Z,12.07
2019-01-05T17:16:02.530Z,13.60
2019-01-05T17:18:57.951Z,15.43
2019-01-05T17:22:08.598Z,12.23
2019-01-05T17:25:14.364Z,15.07
2019-01-05T17:28:08.969Z,14.27
2019-01-05T17:31:03.048Z,13.57
2019-01-05T17:33:51.673Z,13.07
2019-01-05T17:36:54.900Z,14.33
2019-01-05T17:39:57.770Z,11.30
2019-01-05T17:42:59.711Z,12.10
2019-01-05T17:45:47.983Z,18.40
2019-01-05T17:48:42.333Z,13.20
2019-01-05T17:51:38.309Z,10.03
2019-01-05T17:54:28.419Z,11.17
2019-01-05T17:57:24.973Z,10.70
2019-01-05T18:00:15.742Z,9.17
2019-01-05T18:03:21.034Z,9.70
2019-01-05T18:06:14.070Z,10.93
2019-01-05T18:09:19.021Z,12.10
2019-01-05T18:12:09.033Z,9.33
2019-01-05T18:14:57.443Z,10.70
2019-01-05T18:17:45.808Z,10.17
2019-01-05T18:20:38.303Z,10.53
2019-01-05T18:23:31.622Z,15.17
2019-01-05T18:26:20.153Z,14.67
2019-01-05T18:29:08.941Z,15.00
2019-01-05T18:32:11.141Z,11.23
2019-01-05T18:35:19.630Z,10.77
2019-01-05T18:38:18.558Z,11.03
2019-01-05T18:41:14.126Z,11.43
2019-01-05T18:44:09.882Z,9.70
2019-01-05T18:47:17.463Z,10.60
2019-01-05T18:50:07.174Z,11.30
2019-01-05T18:52:56.007Z,10.27
2019-01-05T18:55:45.086Z,11.10
2019-01-05T18:58:35.085Z,10.80
2019-01-05T19:01:24.892Z,13.40
2019-01-05T19:04:23.670Z,11.17
2019-01-05T19:07:12.223Z,9.70
2019-01-05T19:10:08.382Z,11.57
2019-01-05T19:13:07.107Z,9.60
2019-01-05T19:15:59.974Z,12.23
2019-01-05T19:19:02.045Z,14.03
2019-01-05T19:21:52.082Z,11.90
2019-01-05T19:24:51.030Z,10.03
2019-01-05T19:27:43.957Z,9.80
2019-01-05T19:30:46.198Z,7.80
2019-01-05T19:33:34.888Z,8.67
2019-01-05T19:36:27.817Z,8.20
2019-01-05T19:39:16.166Z,8.70
2019-01-05T19:42:05.882Z,8.27
2019-01-05T19:45:01.786Z,7.80
2019-01-05T19:48:05.131Z,7.73
2019-01-05T19:50:53.747Z,9.60
2019-01-05T19:53:42.882Z,10.63
2019-01-05T19:56:51.086Z,10.13
2019-01-05T19:59:39.365Z,11.80
2019-01-05T20:02:39.097Z,11.67
2019-01-05T20:05:27.766Z,9.93
2019-01-05T20:08:36.122Z,16.70
2019-01-05T20:11:25.390Z,20.10
2019-01-05T20:14:14.053Z,34.73
2019-01-05T20:17:19.234Z,21.07
2019-01-05T20:20:03.285Z,12.80
2019-01-05T20:23:01.870Z,9.40
2019-01-05T20:25:50.475Z,11.57
2019-01-05T20:28:46.394Z,11.97
2019-01-05T20:31:42.631Z,11.70
2019-01-05T20:34:41.509Z,12.40
2019-01-05T20:37:37.546Z,10.30
2019-01-05T20:40:30.496Z,11.20
2019-01-05T20:43:19.590Z,11.10
2019-01-05T20:46:08.158Z,11.13
2019-01-05T20:48:57.179Z,12.00
2019-01-05T20:51:47.162Z,11.43
2019-01-05T20:54:37.523Z,10.20
2019-01-05T20:57:26.082Z,10.87
2019-01-05T20:59:58.994Z,9.37
2019-01-05T21:02:57.962Z,9.43
2019-01-05T21:05:54.298Z,7.43
2019-01-05T21:08:44.627Z,6.73
2019-01-05T21:11:40.967Z,9.63
2019-01-05T21:14:29.550Z,7.40
2019-01-05T21:17:28.510Z,7.20
2019-01-05T21:20:19.004Z,8.77
2019-01-05T21:23:07.469Z,8.50
2019-01-05T21:26:03.350Z,8.77
2019-01-05T21:29:13.511Z,9.20
2019-01-05T21:32:12.293Z,9.70
2019-01-05T21:35:13.318Z,8.53
2019-01-05T21:38:02.331Z,7.10
2019-01-05T21:40:58.402Z,7.40
2019-01-05T21:43:51.018Z,6.67
2019-01-05T21:46:47.028Z,8.20
2019-01-05T21:49:36.907Z,7.23
2019-01-05T21:52:25.617Z,7.50
2019-01-05T21:55:33.566Z,7.10
2019-01-05T21:58:23.591Z,6.20
2019-01-05T22:01:19.254Z,7.47
2019-01-05T22:04:12.538Z,7.17
2019-01-05T22:06:58.121Z,7.83
2019-01-05T22:09:47.734Z,7.30
2019-01-05T22:12:46.870Z,6.77
2019-01-05T22:15:55.190Z,6.00
2019-01-05T22:18:53.424Z,7.17
2019-01-05T22:21:43.308Z,6.40
2019-01-05T22:24:41.813Z,5.77
2019-01-05T22:27:34.802Z,6.40
2019-01-05T22:30:39.547Z,6.17
2019-01-05T22:33:31.959Z,6.60
2019-01-05T22:36:23.202Z,7.20
2019-01-05T22:39:11.651Z,7.00
2019-01-05T22:42:00.138Z,6.67
2019-01-05T22:44:50.845Z,6.57
2019-01-05T22:47:43.631Z,7.37
2019-01-05T22:50:32.035Z,7.40
2019-01-05T22:53:30.386Z,6.73
2019-01-05T22:56:23.234Z,7.73
2019-01-05T22:59:15.719Z,7.50
2019-01-05T23:02:11.402Z,7.50
2019-01-05T23:04:59.820Z,8.00
2019-01-05T23:08:04.920Z,6.60
2019-01-05T23:11:00.408Z,7.30
2019-01-05T23:14:04.561Z,5.87
2019-01-05T23:17:03.522Z,6.90
2019-01-05T23:20:08.549Z,6.00
2019-01-05T23:22:58.270Z,6.97
2019-01-05T23:25:47.293Z,5.80
2019-01-05T23:28:48.954Z,5.90
2019-01-05T23:31:38.821Z,7.37
2019-01-05T23:34:46.842Z,6.70
2019-01-05T23:37:51.886Z,6.30
2019-01-05T23:40:47.532Z,6.73
2019-01-05T23:43:40.397Z,6.83
2019-01-05T23:46:29.103Z,6.77
2019-01-05T23:49:18.986Z,6.73
2019-01-05T23:52:08.858Z,7.27
2019-01-05T23:54:58.041Z,8.07
2019-01-05T23:58:03.185Z,7.20
